Flight Track Log - Related Links

Times and Time Zones

All times are in EDT time to prevent confusion due to time zone crossing. See the AAL2384 flight status page for this flight to view local times or setup timezone preferences in your user account.

Time Position Orientation Groundspeed Altitude Reporting Facility
EDT Latitude Longitude Course Direction KTS MPH feet Rate Location/Type
Mon 10:09:04 PM 32.9167 -97.0333 357° North 164 189 1,600  Level Dallas / Fort Worth TRACON
Mon 10:10:04 PM 32.9833 -97.0333 360° North 251 289 3,400 2,625 Climbing Dallas / Fort Worth TRACON
Mon 10:11:00 PM 32.8442 -96.8012 10° North  Level FlightAware Approximate
Mon 10:12:00 PM 32.9605 -96.8000 North  Level FlightAware Approximate
Mon 10:12:16 PM 33.1292 -97.0017 10° North 266 306 10,000  Level Fort Worth Center
Mon 10:13:00 PM 33.0768 -96.8007 357° North  Level FlightAware Approximate
Mon 10:13:16 PM 33.1978 -96.9592 27° Northeast 287 330 11,900  Level Fort Worth Center
Mon 10:14:00 PM 33.1930 -96.8090 357° North  Level FlightAware Approximate
Mon 10:14:16 PM 33.3000 -96.9064 23° Northeast 343 395 14,100  Level Fort Worth Center
Mon 10:15:16 PM 33.3875 -96.8586 25° Northeast 373 429 16,800 2,550 Climbing Fort Worth Center
Mon 10:16:16 PM 33.4936 -96.7958 26° Northeast 380 437 19,200 2,300 Climbing Fort Worth Center
Mon 10:17:16 PM 33.5808 -96.7403 28° Northeast 387 445 21,400 2,200 Climbing Fort Worth Center
Mon 10:18:16 PM 33.6933 -96.6694 28° Northeast 392 451 23,600 1,850 Climbing Fort Worth Center
Mon 10:19:16 PM 33.7806 -96.6114 29° Northeast 392 451 25,100 1,500 Climbing Fort Worth Center
Mon 10:20:16 PM 33.8928 -96.5403 28° Northeast 397 457 26,600 1,700 Climbing Fort Worth Center
Mon 10:21:16 PM 33.9986 -96.4714 28° Northeast 408 470 28,500 1,550 Climbing Fort Worth Center
Mon 10:22:16 PM 34.1025 -96.3975 30° Northeast 413 475 29,700 900 Climbing Fort Worth Center
Mon 10:23:16 PM 34.2081 -96.3111 34° Northeast 435 501 30,300 850 Climbing Fort Worth Center
Mon 10:24:16 PM 34.3139 -96.2217 35° Northeast 451 519 31,400 850 Climbing Fort Worth Center
Mon 10:25:16 PM 34.4236 -96.1347 33° Northeast 464 534 32,000 600 Climbing Fort Worth Center
Mon 10:26:16 PM 34.5289 -96.0447 35° Northeast 464 534 32,600 500 Climbing Fort Worth Center
Mon 10:27:16 PM 34.6386 -95.9572 33° Northeast 459 528 33,000 200 Climbing Fort Worth Center
Mon 10:28:16 PM 34.7439 -95.8669 35° Northeast 464 534 33,000  Level Fort Worth Center
Mon 10:29:16 PM 34.8533 -95.7764 34° Northeast 464 534 33,000 450 Level Fort Worth Center
Mon 10:30:16 PM 34.9481 -95.6911 36° Northeast 464 534 33,900 900 Climbing Fort Worth Center
Mon 10:31:16 PM 35.0489 -95.5953 38° Northeast 464 534 34,800 550 Climbing Fort Worth Center
Mon 10:32:16 PM 35.1478 -95.5017 38° Northeast 456 525 35,000 65 Climbing Fort Worth Center
Mon 10:34:20 PM 35.3642 -95.2964 38° Northeast 451 519 35,000  Level Memphis Center
Mon 10:35:20 PM 35.4619 -95.2028 38° Northeast 451 519 35,000  Level Memphis Center
Mon 10:36:20 PM 35.5614 -95.1064 38° Northeast 451 519 35,000  Level Memphis Center
Mon 10:38:20 PM 35.7561 -94.9181 38° Northeast 451 519 35,000  Level Memphis Center
Mon 10:39:20 PM 35.8556 -94.8211 38° Northeast 451 519 35,000  Level Memphis Center
Mon 10:40:20 PM 35.9569 -94.7267 37° Northeast 451 519 35,000 50 Level Memphis Center
Mon 10:41:20 PM 36.0522 -94.6289 40° Northeast 451 519 35,100  Climbing Memphis Center
Mon 10:43:27 PM 36.2519 -94.4381 38° Northeast 449 517 35,000 -32 Descending Kansas City Center
Mon 10:44:28 PM 36.3500 -94.3419 38° Northeast 449 517 35,000  Level Kansas City Center
Mon 10:45:29 PM 36.4472 -94.2458 38° Northeast 449 517 35,000 33 Level Kansas City Center
Mon 10:47:00 PM 36.5732 -94.0936 39° Northeast  Level FlightAware Approximate
Mon 10:47:31 PM 36.6419 -94.0553 39° Northeast 445 512 35,100  Level Kansas City Center
Mon 10:48:31 PM 36.7367 -93.9592 39° Northeast 442 509 35,000 -50 Descending Kansas City Center
Mon 10:49:32 PM 36.8503 -93.8456 39° Northeast 436 502 35,000 -49 Level Kansas City Center
Mon 10:50:33 PM 36.9292 -93.7667 39° Northeast 433 498 34,900 -49 Descending Kansas City Center
Mon 10:51:34 PM 37.0419 -93.6517 39° Northeast 435 501 34,900 49 Level Kansas City Center
Mon 10:52:35 PM 37.1375 -93.5569 38° Northeast 436 502 35,000 98 Climbing Kansas City Center
Mon 10:53:36 PM 37.2336 -93.4603 39° Northeast 440 506 35,100 49 Climbing Kansas City Center
Mon 10:54:37 PM 37.3289 -93.3639 39° Northeast 439 505 35,100 -49 Level Kansas City Center
Mon 10:55:38 PM 37.4253 -93.2728 37° Northeast 434 499 35,000 -98 Descending Kansas City Center
Mon 10:56:39 PM 37.5197 -93.1831 37° Northeast 425 489 34,900  Descending Kansas City Center
Mon 10:57:40 PM 37.6167 -93.0944 36° Northeast 428 493 35,000 49 Climbing Kansas City Center
Mon 10:58:41 PM 37.7119 -93.0050 37° Northeast 426 490 35,000 -49 Level Kansas City Center
Mon 10:59:42 PM 37.8075 -92.9153 37° Northeast 425 489 34,900 -50 Descending Kansas City Center
Mon 11:00:42 PM 37.9033 -92.8253 37° Northeast 425 489 34,900 99 Level Kansas City Center
Mon 11:01:43 PM 37.9956 -92.7383 37° Northeast 432 497 35,100 98 Climbing Kansas City Center
Mon 11:02:44 PM 38.0922 -92.6478 36° Northeast 433 498 35,100  Level Kansas City Center
Mon 11:03:45 PM 38.1992 -92.5469 37° Northeast 436 502 35,100 -49 Level Kansas City Center
Mon 11:04:46 PM 38.2967 -92.4544 37° Northeast 433 498 35,000 -98 Descending Kansas City Center
Mon 11:05:47 PM 38.3933 -92.3617 37° Northeast 430 495 34,900 -49 Descending Kansas City Center
Mon 11:06:48 PM 38.4892 -92.2711 36° Northeast 427 491 34,900  Level Kansas City Center
Mon 11:07:49 PM 38.5850 -92.1789 37° Northeast 427 491 34,900  Level Kansas City Center
Mon 11:08:50 PM 38.6817 -92.0858 37° Northeast 431 496 34,900 49 Level Kansas City Center
Mon 11:09:51 PM 38.7794 -91.9911 37° Northeast 436 502 35,000 98 Climbing Kansas City Center
Mon 11:10:52 PM 38.8794 -91.8950 37° Northeast 443 510 35,100 49 Climbing Kansas City Center
Mon 11:11:53 PM 38.9778 -91.8000 37° Northeast 442 509 35,100  Level Kansas City Center
Mon 11:12:53 PM 39.0767 -91.7028 37° Northeast 444 511 35,100  Level Kansas City Center
Mon 11:13:54 PM 39.1794 -91.6022 37° Northeast 444 511 35,100  Level Kansas City Center
Mon 11:14:55 PM 39.2797 -91.5072 36° Northeast 445 512 35,100 -49 Level Kansas City Center
Mon 11:15:56 PM 39.3761 -91.4094 38° Northeast 444 511 35,000 -98 Descending Kansas City Center
Mon 11:16:57 PM 39.4714 -91.3167 37° Northeast 434 499 34,900 -49 Descending Kansas City Center
Mon 11:17:58 PM 39.5669 -91.2217 37° Northeast 433 498 34,900 49 Level Kansas City Center
Mon 11:18:59 PM 39.6628 -91.1256 38° Northeast 433 498 35,000 98 Climbing Kansas City Center
Mon 11:20:00 PM 39.7611 -91.0281 37° Northeast 436 502 35,100  Climbing Kansas City Center
Mon 11:21:01 PM 39.8578 -90.9317 37° Northeast 436 502 35,000  Descending Kansas City Center
Mon 11:22:02 PM 39.9544 -90.8342 38° Northeast 438 504 35,100  Climbing Kansas City Center
Mon 11:23:03 PM 40.0494 -90.7372 38° Northeast 436 502 35,000 -52 Descending Kansas City Center
Mon 11:23:58 PM 40.1411 -90.6444 38° Northeast 435 501 35,000  Level Chicago Center
Mon 11:24:59 PM 40.2408 -90.5425 38° Northeast 435 501 35,000  Level Chicago Center
Mon 11:26:00 PM 40.3358 -90.4453 38° Northeast 434 499 35,000 -393 Level Chicago Center
Mon 11:27:01 PM 40.4308 -90.3483 38° Northeast 433 498 34,200 -639 Descending Chicago Center
Mon 11:28:02 PM 40.5375 -90.2367 38° Northeast 426 490 33,700 -1,033 Descending Chicago Center
Mon 11:29:03 PM 40.6106 -90.1164 51° Northeast 425 489 32,100 -1,770 Descending Chicago Center
Mon 11:30:04 PM 40.6897 -89.9969 49° Northeast 434 499 30,100 -2,016 Descending Chicago Center
Mon 11:31:05 PM 40.7692 -89.8750 49° Northeast 440 506 28,000 -1,967 Descending Chicago Center
Mon 11:32:06 PM 40.8467 -89.7519 50° Northeast 439 505 26,100 -1,869 Descending Chicago Center
Mon 11:33:07 PM 40.9250 -89.6308 49° Northeast 437 503 24,200 -1,934 Descending Chicago Center
Mon 11:34:07 PM 41.0006 -89.5150 49° Northeast 430 495 22,200 -1,934 Descending Chicago Center
Mon 11:35:08 PM 41.0758 -89.3983 49° Northeast 421 484 20,300 -1,967 Descending Chicago Center
Mon 11:36:09 PM 41.1464 -89.2858 50° Northeast 407 468 18,200 -1,967 Descending Chicago Center
Mon 11:37:10 PM 41.2175 -89.1747 50° Northeast 396 456 16,300 -2,164 Descending Chicago Center
Mon 11:38:11 PM 41.2961 -89.0472 51° Northeast 378 435 13,800 -2,213 Descending Chicago Center
Mon 11:39:12 PM 41.3611 -88.9442 50° Northeast 369 425 11,800 -1,377 Descending Chicago Center
Mon 11:40:13 PM 41.4219 -88.8486 50° Northeast 350 403 11,000 -393 Descending Chicago Center
Mon 11:41:14 PM 41.4761 -88.7625 50° Northeast 314 361 11,000  Level Chicago Center
Mon 11:42:14 PM 41.5239 -88.6803 52° Northeast 288 331 11,000  Level Chicago Center
Mon 11:43:15 PM 41.5586 -88.5861 64° Northeast 284 327 11,000  Level Chicago Center
Mon 11:44:16 PM 41.5958 -88.4950 61° Northeast 281 323 11,000 -1,091 Level Chicago Center
Mon 11:45:16 PM 41.6394 -88.4111 55° Northeast 276 318 8,800 -1,983 Descending Chicago Center
Mon 11:46:17 PM 41.7047 -88.3614 30° Northeast 282 325 7,000 -1,721 Descending Chicago Center
Mon 11:47:18 PM 41.7742 -88.3189 25° Northeast 276 318 5,300 -1,475 Descending Chicago Center
Mon 11:48:19 PM 41.8394 -88.2708 29° Northeast 271 312 4,000 -645 Descending Chicago Center
Mon 11:49:19 PM 41.9072 -88.2267 26° Northeast 272 313 4,000 -50 Level Chicago Center
Mon 11:50:20 PM 41.9453 -88.1464 57° Northeast 268 308 3,900 -98 Descending Chicago Center

Login

Don't have an account? Register now (free) for customized features, flight alerts, and more!